This is the latest recevied weather packets stored in our database for station/object K2RMB. If no packets are shown the sender has not sent any weather packets the latest 1 day(s).
| Time | Temp. | Humidity | Pressure | Rain* | Wind** | Luminosity | Snow |
|---|---|---|---|---|---|---|---|
| 1777990816 | 21.67° C | 49% | 1009.8 hPa | 0 mm | 0.89 m/s, 18° | 346 W/m² | - |
| 1777990514 | 21.67° C | 49% | 1009.8 hPa | 0 mm | 2.68 m/s, 18° | 297 W/m² | - |
| 1777990210 | 21.67° C | 46% | 1009.3 hPa | 0 mm | 1.34 m/s, 18° | 610 W/m² | - |
| 1777989907 | 21.67° C | 51% | 1009 hPa | 0 mm | 1.79 m/s, 12° | 404 W/m² | - |
| 1777989604 | 21.67° C | 51% | 1009.3 hPa | 0 mm | 1.34 m/s, 24° | 598 W/m² | - |
| 1777989300 | 21.67° C | 49% | 1009.3 hPa | 0 mm | 0 m/s | 421 W/m² | - |
| 1777988996 | 20.56° C | 50% | 1009 hPa | 0 mm | 1.34 m/s, 24° | 676 W/m² | - |
| 1777988693 | 20° C | 52% | 1009.3 hPa | 0 mm | 1.79 m/s, 24° | 547 W/m² | - |
| 1777988389 | 19.44° C | 52% | 1009.3 hPa | 0 mm | 1.34 m/s, 18° | 302 W/m² | - |
| 1777988087 | 19.44° C | 52% | 1009.8 hPa | 0 mm | 2.24 m/s, 24° | 240 W/m² | - |
| 1777987782 | 20° C | 51% | 1009.3 hPa | 0 mm | 1.34 m/s, 12° | 346 W/m² | - |
| 1777987479 | 20° C | 51% | 1009.3 hPa | 0 mm | 0.89 m/s, 6° | 512 W/m² | - |
| 1777987177 | 19.44° C | 51% | 1009.3 hPa | 0 mm | 1.34 m/s, 6° | 501 W/m² | - |
| 1777986873 | 18.89° C | 52% | 1009.3 hPa | 0 mm | 1.34 m/s, 12° | 485 W/m² | - |
| 1777986572 | 18.33° C | 55% | 1009.3 hPa | 0 mm | 0 m/s | 307 W/m² | - |
| 1777986270 | 17.78° C | 57% | 1009.3 hPa | 0 mm | 1.34 m/s, 12° | 420 W/m² | - |
| 1777985966 | 17.22° C | 58% | 1009.3 hPa | 0 mm | 0 m/s | 252 W/m² | - |
| 1777985664 | 17.22° C | 56% | 1009.8 hPa | 0 mm | 2.24 m/s, 12° | 157 W/m² | - |
| 1777985360 | 17.22° C | 56% | 1009.3 hPa | 0 mm | 0.89 m/s, 12° | 171 W/m² | - |
| 1777985057 | 17.22° C | 56% | 1009.3 hPa | 0 mm | 1.34 m/s, 12° | 208 W/m² | - |
| 1777984754 | 17.22° C | 58% | 1009.3 hPa | 0 mm | 1.34 m/s, 24° | 200 W/m² | - |
| 1777984450 | 16.67° C | 62% | 1009 hPa | 0 mm | 3.13 m/s, 24° | 274 W/m² | - |
| 1777984146 | 16.67° C | 59% | 1009.8 hPa | 0 mm | 1.34 m/s, 42° | 142 W/m² | - |
| 1777983844 | 16.67° C | 64% | 1009 hPa | 0 mm | 1.34 m/s, 36° | 156 W/m² | - |
| 1777983540 | 16.67° C | 60% | 1009.3 hPa | 0 mm | 0 m/s | 174 W/m² | - |
* Rain latest hour (hover to see other rain measurements)
** Current wind speed in m/s (hover to see current wind gust speed)